Ben-my-chree — MXLG6 — position and weather

sailwx.info

Track history (hours):
 
Tides and Currents Weather Stations Pressure Air Temp Water Temp Dewpoint Dewpoint Depression Visibility Wind Speed Wind Dir Waves Ship Positions

Ben-my-chree

Operator: The Isle of Man Steam Packet Co Ltd

Last reported at 2018-Jan-23 19:50 UTC. Time now 2018-Jan-24 01:52 UTC.
Position N 53°56' W 003°29'.

Length 120 m; draft 5 m.

Type: Passenger vessel. MMSI: 234983000.

Date/timePositionNaut miles runAvg speedWind from/ knotsBaromVisibWave heightAir tempDewpointWater temp
2018-Jan-23 19:50N 53°56' W 003°29'817.6
2018-Jan-23 19:24N 53°56' W 003°15'718.3
2018-Jan-23 19:01N 53°58' W 003°04'7 1.7
2018-Jan-23 15:00N 54°02' W 002°55'0 0.0
2018-Jan-23 14:30N 54°02' W 002°55'0 0.0
2018-Jan-23 13:29N 54°02' W 002°55'0 0.0
2018-Jan-23 12:22N 54°02' W 002°55'0 0.3
2018-Jan-23 12:00N 54°02' W 002°55'816.2
2018-Jan-23 11:30N 53°57' W 003°06'918.8
2018-Jan-23 11:01N 53°55' W 003°21'918.1
2018-Jan-23 10:30N 53°57' W 003°36'4 0.6
2018-Jan-23 03:21N 53°56' W 003°30'618.0
2018-Jan-23 03:00N 53°56' W 003°19'817.3
2018-Jan-23 02:30N 53°57' W 003°05'815.1
2018-Jan-23 02:01N 54°02' W 002°55'0 0.0
2018-Jan-22 23:07N 54°02' W 002°55'0 3.1
2018-Jan-22 23:01N 54°02' W 002°55'917.2
2018-Jan-22 22:31N 53°57' W 003°07'918.0
2018-Jan-22 22:01N 53°55' W 003°22'917.3
2018-Jan-22 21:29N 53°58' W 003°37'5 0.8
2018-Jan-22 15:30N 53°56' W 003°29'917.4
2018-Jan-22 14:58N 53°56' W 003°14'816.9
2018-Jan-22 14:31N 53°58' W 003°01'5 2.0
2018-Jan-22 11:57N 54°02' W 002°55'614.6
2018-Jan-22 11:30N 53°58' W 003°03'919.0
2018-Jan-22 11:01N 53°56' W 003°19'918.6
2018-Jan-22 10:30N 53°57' W 003°35'1018.4
2018-Jan-22 09:59N 54°00' W 003°50'13 1.9
2018-Jan-22 03:20N 53°56' W 003°29'617.7
2018-Jan-22 03:00N 53°56' W 003°20'917.4
2018-Jan-22 02:30N 53°57' W 003°05'8 2.1
2018-Jan-21 22:56N 54°02' W 002°55'614.6
2018-Jan-21 22:31N 53°58' W 003°03'1019.0
2018-Jan-21 22:00N 53°55' W 003°19'918.6
2018-Jan-21 21:30N 53°57' W 003°34'918.6
2018-Jan-21 21:00N 54°00' W 003°49'17 4.8
2018-Jan-21 17:23N 54°05' W 004°17'2918.5
2018-Jan-21 15:48N 53°45' W 003°41'618.9
2018-Jan-21 15:30N 53°41' W 003°35'1018.9
2018-Jan-21 15:00N 53°34' W 003°23'917.8
2018-Jan-21 14:30N 53°32' W 003°09'917.7
2018-Jan-21 14:00N 53°25' W 003°00'1 1.1
2018-Jan-21 13:29N 53°24' W 003°01'0 0.0
2018-Jan-21 12:59N 53°24' W 003°01'0 0.0
2018-Jan-21 12:29N 53°24' W 003°01'2 3.8
2018-Jan-21 12:00N 53°26' W 003°01'816.2
2018-Jan-21 11:30N 53°32' W 003°11'816.3
2018-Jan-21 11:00N 53°34' W 003°24'916.9
2018-Jan-21 10:30N 53°40' W 003°34'816.4
2018-Jan-21 10:00N 53°45' W 003°44'14 2.1
2018-Jan-21 03:17N 53°56' W 003°28'519.1
2018-Jan-21 03:01N 53°55' W 003°19'918.6
2018-Jan-21 02:31N 53°58' W 003°04'7 2.0
2018-Jan-20 23:07N 54°02' W 002°55'0 3.6
2018-Jan-20 23:00N 54°02' W 002°56'1019.6
2018-Jan-20 22:31N 53°56' W 003°09'1019.2
2018-Jan-20 22:01N 53°55' W 003°25'33 7.1
2018-Jan-20 17:18N 54°06' W 004°19'3418.7
2018-Jan-20 15:31N 53°43' W 003°39'019.2
2018-Jan-20 15:30N 53°42' W 003°38'918.9
2018-Jan-20 15:00N 53°36' W 003°27'918.4
2018-Jan-20 14:31N 53°31' W 003°14'816.5
2018-Jan-20 14:00N 53°27' W 003°02'3 5.8
2018-Jan-20 13:29N 53°24' W 003°01'0 0.0
2018-Jan-20 12:59N 53°24' W 003°01'0 0.0
2018-Jan-20 12:30N 53°24' W 003°01'4 7.8
2018-Jan-20 12:00N 53°28' W 003°03'815.9
2018-Jan-20 11:30N 53°31' W 003°15'918.7
2018-Jan-20 11:00N 53°36' W 003°28'918.6
2018-Jan-20 10:30N 53°43' W 003°39'918.9
2018-Jan-20 10:00N 53°50' W 003°50'14 2.1
2018-Jan-20 03:19N 53°55' W 003°28'618.2
2018-Jan-20 03:00N 53°55' W 003°18'918.4
2018-Jan-20 02:30N 53°58' W 003°03'6 1.8
2018-Jan-19 23:02N 54°02' W 002°55'0 0.0
2018-Jan-19 23:00N 54°02' W 002°55'713.2
2018-Jan-19 22:31N 53°58' W 003°03'918.9
2018-Jan-19 22:01N 53°55' W 003°19'918.5
2018-Jan-19 21:30N 53°57' W 003°34'4 0.7
2018-Jan-19 15:19N 53°56' W 003°28'517.3
2018-Jan-19 15:00N 53°56' W 003°19'917.6
2018-Jan-19 14:30N 53°58' W 003°04'7 2.7
2018-Jan-19 11:58N 54°02' W 002°55'714.7
2018-Jan-19 11:30N 53°58' W 003°04'918.8
2018-Jan-19 11:01N 53°55' W 003°19'918.4
2018-Jan-19 10:30N 53°57' W 003°35'4 0.5
2018-Jan-19 03:27N 53°56' W 003°29'817.8
2018-Jan-19 02:59N 53°56' W 003°15'918.4
2018-Jan-19 02:30N 53°59' W 003°01'5 9.5
2018-Jan-19 02:00N 54°02' W 002°55'0 0.0
2018-Jan-19 00:04N 54°02' W 002°55'0 0.0
2018-Jan-19 00:00N 54°02' W 002°55'0 0.0
2018-Jan-18 23:30N 54°02' W 002°55'0 0.1
2018-Jan-18 22:57N 54°02' W 002°55'715.2
2018-Jan-18 22:30N 53°58' W 003°04'1019.1
2018-Jan-18 22:00N 53°55' W 003°20'918.4
2018-Jan-18 21:30N 53°57' W 003°35'4 0.7
2018-Jan-18 15:19N 53°55' W 003°29'617.8
2018-Jan-18 15:00N 53°56' W 003°19'918.2
2018-Jan-18 14:30N 53°57' W 003°04'7 3.2
2018-Jan-18 12:19N 54°02' W 002°55'0 0.2
2018-Jan-18 12:00N 54°02' W 002°55'714.1
2018-Jan-18 11:30N 53°57' W 003°04'918.2
2018-Jan-18 11:00N 53°55' W 003°19'918.4
2018-Jan-18 10:30N 53°57' W 003°35'1 0.2
2018-Jan-18 02:31N 53°56' W 003°32'115.6
2018-Jan-18 02:26N 53°56' W 003°30'716.6
2018-Jan-18 02:00N 53°56' W 003°18'816.5
2018-Jan-18 01:30N 53°57' W 003°05'713.1
2018-Jan-18 00:56N 54°02' W 002°55'  
Track history (hours):
 
Tides and Currents Weather Stations Pressure Air Temp Water Temp Dewpoint Dewpoint Depression Visibility Wind Speed Wind Dir Waves Ship Positions

Ben-my-chree

Operator: The Isle of Man Steam Packet Co Ltd

Last reported at 2018-Jan-23 19:50 UTC. Time now 2018-Jan-24 01:52 UTC.
Position N 53°56' W 003°29'.

Length 120 m; draft 5 m.

Type: Passenger vessel. MMSI: 234983000.

Date/timePositionNaut miles runAvg speedWind from/ knotsBaromVisibWave heightAir tempDewpointWater temp
2018-Jan-23 19:50N 53°56' W 003°29'817.6
2018-Jan-23 19:24N 53°56' W 003°15'718.3
2018-Jan-23 19:01N 53°58' W 003°04'7 1.7
2018-Jan-23 15:00N 54°02' W 002°55'0 0.0
2018-Jan-23 14:30N 54°02' W 002°55'0 0.0
2018-Jan-23 13:29N 54°02' W 002°55'0 0.0
2018-Jan-23 12:22N 54°02' W 002°55'0 0.3
2018-Jan-23 12:00N 54°02' W 002°55'816.2
2018-Jan-23 11:30N 53°57' W 003°06'918.8
2018-Jan-23 11:01N 53°55' W 003°21'918.1
2018-Jan-23 10:30N 53°57' W 003°36'4 0.6
2018-Jan-23 03:21N 53°56' W 003°30'618.0
2018-Jan-23 03:00N 53°56' W 003°19'817.3
2018-Jan-23 02:30N 53°57' W 003°05'815.1
2018-Jan-23 02:01N 54°02' W 002°55'0 0.0
2018-Jan-22 23:07N 54°02' W 002°55'0 3.1
2018-Jan-22 23:01N 54°02' W 002°55'917.2
2018-Jan-22 22:31N 53°57' W 003°07'918.0
2018-Jan-22 22:01N 53°55' W 003°22'917.3
2018-Jan-22 21:29N 53°58' W 003°37'5 0.8
2018-Jan-22 15:30N 53°56' W 003°29'917.4
2018-Jan-22 14:58N 53°56' W 003°14'816.9
2018-Jan-22 14:31N 53°58' W 003°01'5 2.0
2018-Jan-22 11:57N 54°02' W 002°55'614.6
2018-Jan-22 11:30N 53°58' W 003°03'919.0
2018-Jan-22 11:01N 53°56' W 003°19'918.6
2018-Jan-22 10:30N 53°57' W 003°35'1018.4
2018-Jan-22 09:59N 54°00' W 003°50'13 1.9
2018-Jan-22 03:20N 53°56' W 003°29'617.7
2018-Jan-22 03:00N 53°56' W 003°20'917.4
2018-Jan-22 02:30N 53°57' W 003°05'8 2.1
2018-Jan-21 22:56N 54°02' W 002°55'614.6
2018-Jan-21 22:31N 53°58' W 003°03'1019.0
2018-Jan-21 22:00N 53°55' W 003°19'918.6
2018-Jan-21 21:30N 53°57' W 003°34'918.6
2018-Jan-21 21:00N 54°00' W 003°49'17 4.8
2018-Jan-21 17:23N 54°05' W 004°17'2918.5
2018-Jan-21 15:48N 53°45' W 003°41'618.9
2018-Jan-21 15:30N 53°41' W 003°35'1018.9
2018-Jan-21 15:00N 53°34' W 003°23'917.8
2018-Jan-21 14:30N 53°32' W 003°09'917.7
2018-Jan-21 14:00N 53°25' W 003°00'1 1.1
2018-Jan-21 13:29N 53°24' W 003°01'0 0.0
2018-Jan-21 12:59N 53°24' W 003°01'0 0.0
2018-Jan-21 12:29N 53°24' W 003°01'2 3.8
2018-Jan-21 12:00N 53°26' W 003°01'816.2
2018-Jan-21 11:30N 53°32' W 003°11'816.3
2018-Jan-21 11:00N 53°34' W 003°24'916.9
2018-Jan-21 10:30N 53°40' W 003°34'816.4
2018-Jan-21 10:00N 53°45' W 003°44'14 2.1
2018-Jan-21 03:17N 53°56' W 003°28'519.1
2018-Jan-21 03:01N 53°55' W 003°19'918.6
2018-Jan-21 02:31N 53°58' W 003°04'7 2.0
2018-Jan-20 23:07N 54°02' W 002°55'0 3.6
2018-Jan-20 23:00N 54°02' W 002°56'1019.6
2018-Jan-20 22:31N 53°56' W 003°09'1019.2
2018-Jan-20 22:01N 53°55' W 003°25'33 7.1
2018-Jan-20 17:18N 54°06' W 004°19'3418.7
2018-Jan-20 15:31N 53°43' W 003°39'019.2
2018-Jan-20 15:30N 53°42' W 003°38'918.9
2018-Jan-20 15:00N 53°36' W 003°27'918.4
2018-Jan-20 14:31N 53°31' W 003°14'816.5
2018-Jan-20 14:00N 53°27' W 003°02'3 5.8
2018-Jan-20 13:29N 53°24' W 003°01'0 0.0
2018-Jan-20 12:59N 53°24' W 003°01'0 0.0
2018-Jan-20 12:30N 53°24' W 003°01'4 7.8
2018-Jan-20 12:00N 53°28' W 003°03'815.9
2018-Jan-20 11:30N 53°31' W 003°15'918.7
2018-Jan-20 11:00N 53°36' W 003°28'918.6
2018-Jan-20 10:30N 53°43' W 003°39'918.9
2018-Jan-20 10:00N 53°50' W 003°50'14 2.1
2018-Jan-20 03:19N 53°55' W 003°28'618.2
2018-Jan-20 03:00N 53°55' W 003°18'918.4
2018-Jan-20 02:30N 53°58' W 003°03'6 1.8
2018-Jan-19 23:02N 54°02' W 002°55'0 0.0
2018-Jan-19 23:00N 54°02' W 002°55'713.2
2018-Jan-19 22:31N 53°58' W 003°03'918.9
2018-Jan-19 22:01N 53°55' W 003°19'918.5
2018-Jan-19 21:30N 53°57' W 003°34'4 0.7
2018-Jan-19 15:19N 53°56' W 003°28'517.3
2018-Jan-19 15:00N 53°56' W 003°19'917.6
2018-Jan-19 14:30N 53°58' W 003°04'7 2.7
2018-Jan-19 11:58N 54°02' W 002°55'714.7
2018-Jan-19 11:30N 53°58' W 003°04'918.8
2018-Jan-19 11:01N 53°55' W 003°19'918.4
2018-Jan-19 10:30N 53°57' W 003°35'4 0.5
2018-Jan-19 03:27N 53°56' W 003°29'817.8
2018-Jan-19 02:59N 53°56' W 003°15'918.4
2018-Jan-19 02:30N 53°59' W 003°01'5 9.5
2018-Jan-19 02:00N 54°02' W 002°55'0 0.0
2018-Jan-19 00:04N 54°02' W 002°55'0 0.0
2018-Jan-19 00:00N 54°02' W 002°55'0 0.0
2018-Jan-18 23:30N 54°02' W 002°55'0 0.1
2018-Jan-18 22:57N 54°02' W 002°55'715.2
2018-Jan-18 22:30N 53°58' W 003°04'1019.1
2018-Jan-18 22:00N 53°55' W 003°20'918.4
2018-Jan-18 21:30N 53°57' W 003°35'4 0.7
2018-Jan-18 15:19N 53°55' W 003°29'617.8
2018-Jan-18 15:00N 53°56' W 003°19'918.2
2018-Jan-18 14:30N 53°57' W 003°04'7 3.2
2018-Jan-18 12:19N 54°02' W 002°55'0 0.2
2018-Jan-18 12:00N 54°02' W 002°55'714.1
2018-Jan-18 11:30N 53°57' W 003°04'918.2
2018-Jan-18 11:00N 53°55' W 003°19'918.4
2018-Jan-18 10:30N 53°57' W 003°35'1 0.2
2018-Jan-18 02:31N 53°56' W 003°32'115.6
2018-Jan-18 02:26N 53°56' W 003°30'716.6
2018-Jan-18 02:00N 53°56' W 003°18'816.5
2018-Jan-18 01:30N 53°57' W 003°05'713.1
2018-Jan-18 00:56N 54°02' W 002°55'  

Dump ship's entire track history